createdAt,value
2019-03-17T00:01:35.217Z,99488.80
2019-03-17T00:04:04.416Z,99482.34
2019-03-17T00:06:33.132Z,99490.63
2019-03-17T00:09:02.081Z,99480.64
2019-03-17T00:11:31.098Z,99484.07
2019-03-17T00:13:59.852Z,99463.73
2019-03-17T00:16:28.508Z,99463.73
2019-03-17T00:18:57.452Z,99468.97
2019-03-17T00:21:26.346Z,99471.59
2019-03-17T00:23:54.954Z,99453.80
2019-03-17T00:26:23.597Z,99455.48
2019-03-17T00:28:52.493Z,99438.64
2019-03-17T00:31:24.168Z,99436.93
2019-03-17T00:33:51.725Z,99437.03
2019-03-17T00:36:20.929Z,99429.33
2019-03-17T00:38:49.818Z,99448.39
2019-03-17T00:41:18.702Z,99434.22
2019-03-17T00:43:47.597Z,99434.22
2019-03-17T00:46:16.226Z,99439.33
2019-03-17T00:48:45.702Z,99435.89
2019-03-17T00:51:14.657Z,99443.59
2019-03-17T00:53:43.573Z,99430.26
2019-03-17T00:56:12.174Z,99466.10
2019-03-17T00:58:41.151Z,99415.94
2019-03-17T01:01:10.090Z,99415.94
2019-03-17T01:03:38.715Z,99412.03
2019-03-17T01:06:08.032Z,99450.86
2019-03-17T01:08:37.338Z,99409.72
2019-03-17T01:11:06.024Z,99412.37
2019-03-17T01:13:35.313Z,99418.41
2019-03-17T01:16:04.719Z,99400.20
2019-03-17T01:18:33.630Z,99406.30
2019-03-17T01:21:03.222Z,99401.05
2019-03-17T01:23:32.415Z,99402.33
2019-03-17T01:26:01.415Z,99411.69
2019-03-17T01:28:30.316Z,99381.84
2019-03-17T01:30:59.295Z,99410.06
2019-03-17T01:33:28.595Z,99384.91
2019-03-17T01:35:57.591Z,99376.66
2019-03-17T01:38:26.785Z,99391.34
2019-03-17T01:40:55.393Z,99403.55
2019-03-17T01:43:24.369Z,99377.95
2019-03-17T01:45:53.567Z,99376.72
2019-03-17T01:48:22.453Z,99358.22
2019-03-17T01:50:51.659Z,99364.69
2019-03-17T01:53:20.544Z,99404.73
2019-03-17T01:55:49.437Z,99366.25
2019-03-17T01:58:18.114Z,99360.16
2019-03-17T02:00:47.331Z,99351.13
2019-03-17T02:03:15.935Z,99353.28
2019-03-17T02:05:44.554Z,99355.58
2019-03-17T02:08:13.799Z,99342.69
2019-03-17T02:10:42.404Z,99341.30
2019-03-17T02:13:11.272Z,99341.30
2019-03-17T02:15:40.156Z,99355.41
2019-03-17T02:18:08.796Z,99334.52
2019-03-17T02:20:37.483Z,99344.50
2019-03-17T02:23:06.053Z,99302.91
2019-03-17T02:25:34.719Z,99324.91
2019-03-17T02:28:04.113Z,99324.91
2019-03-17T02:30:33.434Z,99299.43
2019-03-17T02:33:02.070Z,99306.77
2019-03-17T02:35:38.852Z,99289.23
2019-03-17T02:38:02.273Z,99308.58
2019-03-17T02:40:31.425Z,99295.28
2019-03-17T02:43:00.628Z,99288.03
2019-03-17T02:45:29.595Z,99313.91
2019-03-17T02:47:58.517Z,99289.30
2019-03-17T02:50:27.400Z,99291.77
2019-03-17T02:52:56.399Z,99292.24
2019-03-17T02:55:25.290Z,99292.24
2019-03-17T02:57:53.917Z,99282.81
2019-03-17T03:00:22.871Z,99292.24
2019-03-17T03:02:51.762Z,99287.34
2019-03-17T03:05:20.654Z,99270.13
2019-03-17T03:07:49.272Z,99264.87
2019-03-17T03:10:18.339Z,99269.61
2019-03-17T03:12:47.224Z,99269.61
2019-03-17T03:15:15.862Z,99264.45
2019-03-17T03:17:44.536Z,99275.44
2019-03-17T03:20:13.482Z,99264.86
2019-03-17T03:22:42.683Z,99264.86
2019-03-17T03:25:11.615Z,99242.05
2019-03-17T03:27:40.879Z,99257.17
2019-03-17T03:30:10.064Z,99255.96
2019-03-17T03:32:38.973Z,99240.05
2019-03-17T03:35:08.111Z,99232.35
2019-03-17T03:37:37.060Z,99230.64
2019-03-17T03:40:05.901Z,99230.64
2019-03-17T03:42:34.949Z,99249.18
2019-03-17T03:45:04.863Z,99263.38
2019-03-17T03:47:33.747Z,99233.77
2019-03-17T03:50:02.346Z,99229.70
2019-03-17T03:52:31.653Z,99231.79
2019-03-17T03:55:00.630Z,99231.29
2019-03-17T03:57:29.234Z,99262.86
2019-03-17T03:59:58.199Z,99239.48
2019-03-17T04:02:26.825Z,99214.43
2019-03-17T04:04:56.394Z,99214.43
2019-03-17T04:07:25.385Z,99218.26
2019-03-17T04:09:54.794Z,99210.54
2019-03-17T04:12:23.522Z,99215.57
2019-03-17T04:14:52.775Z,99219.88
2019-03-17T04:17:22.078Z,99225.03
2019-03-17T04:19:51.049Z,99187.03
2019-03-17T04:22:20.033Z,99225.47
2019-03-17T04:24:49.264Z,99217.69
2019-03-17T04:27:18.255Z,99190.86
2019-03-17T04:29:47.469Z,99199.47
2019-03-17T04:32:16.350Z,99180.52
2019-03-17T04:34:45.543Z,99169.83
2019-03-17T04:37:14.723Z,99188.84
2019-03-17T04:39:43.953Z,99188.87
2019-03-17T04:42:12.574Z,99179.19
2019-03-17T04:44:41.824Z,99179.19
2019-03-17T04:47:11.023Z,99175.77
2019-03-17T04:49:40.022Z,99189.02
2019-03-17T04:52:08.642Z,99182.44
2019-03-17T04:54:37.903Z,99192.81
2019-03-17T04:57:06.577Z,99189.09
2019-03-17T04:59:35.186Z,99184.78
2019-03-17T05:02:04.288Z,99184.78
2019-03-17T05:04:33.575Z,99178.23
2019-03-17T05:07:02.463Z,99177.28
2019-03-17T05:09:31.116Z,99177.28
2019-03-17T05:11:59.726Z,99164.72
2019-03-17T05:14:28.629Z,99182.06
2019-03-17T05:16:57.517Z,99177.76
2019-03-17T05:19:26.129Z,99173.14
2019-03-17T05:21:55.100Z,99183.90
2019-03-17T05:24:24.021Z,99178.64
2019-03-17T05:26:52.987Z,99188.64
2019-03-17T05:29:21.644Z,99167.03
2019-03-17T05:31:50.556Z,99167.03
2019-03-17T05:34:19.770Z,99169.16
2019-03-17T05:36:48.373Z,99167.92
2019-03-17T05:39:17.015Z,99169.59
2019-03-17T05:41:45.896Z,99169.59
2019-03-17T05:44:14.812Z,99170.45
2019-03-17T05:46:43.552Z,99158.94
2019-03-17T05:49:12.141Z,99155.63
2019-03-17T05:51:40.803Z,99152.63
2019-03-17T05:54:09.783Z,99151.29
2019-03-17T05:56:38.762Z,99151.29
2019-03-17T05:59:07.743Z,99171.13
2019-03-17T06:01:36.413Z,99171.13
2019-03-17T06:04:05.029Z,99131.39
2019-03-17T06:06:34.003Z,99153.34
2019-03-17T06:09:03.312Z,99142.02
2019-03-17T06:11:32.921Z,99142.05
2019-03-17T06:14:01.912Z,99135.80
2019-03-17T06:16:31.111Z,99145.90
2019-03-17T06:19:00.002Z,99145.90
2019-03-17T06:21:28.895Z,99138.59
2019-03-17T06:23:58.195Z,99169.22
2019-03-17T06:26:27.182Z,99169.22
2019-03-17T06:28:56.093Z,99128.38
2019-03-17T06:31:24.759Z,99136.12
2019-03-17T06:33:53.673Z,99133.94
2019-03-17T06:36:22.637Z,99142.27
2019-03-17T06:38:51.541Z,99136.48
2019-03-17T06:41:20.561Z,99148.03
2019-03-17T06:43:49.540Z,99139.13
2019-03-17T06:46:18.529Z,99160.30
2019-03-17T06:48:47.720Z,99132.89
2019-03-17T06:51:16.410Z,99152.73
2019-03-17T06:53:55.698Z,99149.36
2019-03-17T06:56:15.755Z,99161.42
2019-03-17T06:58:44.418Z,99136.31
2019-03-17T07:01:13.075Z,99135.86
2019-03-17T07:03:41.993Z,99148.36
2019-03-17T07:06:10.984Z,99155.33
2019-03-17T07:08:39.998Z,99150.88
2019-03-17T07:11:10.926Z,99152.59
2019-03-17T07:13:39.711Z,99164.53
2019-03-17T07:16:08.394Z,99171.03
2019-03-17T07:18:37.037Z,99160.52
2019-03-17T07:21:05.681Z,99160.52
2019-03-17T07:23:35.258Z,99156.07
2019-03-17T07:26:04.252Z,99147.79
2019-03-17T07:28:32.898Z,99185.30
2019-03-17T07:31:01.563Z,99160.99
2019-03-17T07:33:30.531Z,99162.62
2019-03-17T07:35:59.529Z,99153.56
2019-03-17T07:38:28.166Z,99160.14
2019-03-17T07:40:57.045Z,99149.26
2019-03-17T07:43:25.672Z,99180.39
2019-03-17T07:45:54.910Z,99155.59
2019-03-17T07:48:23.536Z,99158.39
2019-03-17T07:50:52.198Z,99153.03
2019-03-17T07:53:20.902Z,99153.03
2019-03-17T07:55:49.517Z,99150.84
2019-03-17T07:58:18.421Z,99145.28
2019-03-17T08:00:47.615Z,99186.66
2019-03-17T08:03:16.263Z,99175.41
2019-03-17T08:05:44.909Z,99151.89
2019-03-17T08:08:14.093Z,99165.16
2019-03-17T08:10:42.703Z,99191.61
2019-03-17T08:13:11.321Z,99162.64
2019-03-17T08:15:40.251Z,99173.53
2019-03-17T08:18:09.456Z,99178.29
2019-03-17T08:20:38.148Z,99182.34
2019-03-17T08:23:07.029Z,99162.37
2019-03-17T08:25:35.654Z,99190.55
2019-03-17T08:28:04.279Z,99174.72
2019-03-17T08:30:33.190Z,99167.77
2019-03-17T08:33:02.385Z,99193.08
2019-03-17T08:35:31.276Z,99176.59
2019-03-17T08:38:00.167Z,99169.73
2019-03-17T08:40:29.218Z,99186.17
2019-03-17T08:42:58.465Z,99164.97
2019-03-17T08:45:27.365Z,99157.22
2019-03-17T08:47:58.121Z,99195.30
2019-03-17T08:50:26.421Z,99196.10
2019-03-17T08:52:55.148Z,99183.53
2019-03-17T08:55:24.215Z,99226.15
2019-03-17T08:57:53.702Z,99239.33
2019-03-17T09:00:22.751Z,99269.13
2019-03-17T09:02:51.633Z,99277.65
2019-03-17T09:05:20.213Z,99298.62
2019-03-17T09:07:48.815Z,99289.25
2019-03-17T09:10:17.548Z,99301.53
2019-03-17T09:12:46.250Z,99316.34
2019-03-17T09:15:14.936Z,99312.14
2019-03-17T09:17:44.171Z,99316.89
2019-03-17T09:20:12.880Z,99327.36
2019-03-17T09:22:41.888Z,99315.71
2019-03-17T09:25:10.659Z,99333.41
2019-03-17T09:27:39.622Z,99333.41
2019-03-17T09:30:10.205Z,99340.84
2019-03-17T09:32:39.153Z,99340.47
2019-03-17T09:35:08.609Z,99343.46
2019-03-17T09:37:37.859Z,99343.46
2019-03-17T09:40:07.777Z,99343.64
2019-03-17T09:42:36.767Z,99343.64
2019-03-17T09:45:06.096Z,99357.44
2019-03-17T09:47:35.060Z,99356.20
2019-03-17T09:50:03.864Z,99353.13
2019-03-17T09:52:33.053Z,99360.44
2019-03-17T09:55:02.247Z,99376.83
2019-03-17T09:57:31.548Z,99358.23
2019-03-17T10:00:00.262Z,99366.39
2019-03-17T10:02:28.882Z,99356.53
2019-03-17T10:04:57.795Z,99366.95
2019-03-17T10:07:26.417Z,99370.22
2019-03-17T10:09:55.393Z,99370.22
2019-03-17T10:12:24.557Z,99364.12
2019-03-17T10:14:53.201Z,99376.98
2019-03-17T10:17:21.838Z,99376.89
2019-03-17T10:19:51.367Z,99376.89
2019-03-17T10:22:20.034Z,99375.92
2019-03-17T10:24:48.657Z,99396.63
2019-03-17T10:27:17.941Z,99396.63
2019-03-17T10:29:47.240Z,99398.26
2019-03-17T10:32:16.441Z,99394.34
2019-03-17T10:34:45.430Z,99393.45
2019-03-17T10:37:14.101Z,99396.84
2019-03-17T10:39:43.017Z,99388.67
2019-03-17T10:42:11.661Z,99402.00
2019-03-17T10:44:40.897Z,99408.00
2019-03-17T10:47:10.175Z,99409.31
2019-03-17T10:49:38.846Z,99419.57
2019-03-17T10:52:07.488Z,99435.19
2019-03-17T10:54:36.121Z,99421.30
2019-03-17T10:57:04.703Z,99428.61
2019-03-17T10:59:33.362Z,99435.05
2019-03-17T11:02:01.993Z,99419.17
2019-03-17T11:04:30.906Z,99412.27
2019-03-17T11:06:59.896Z,99416.98
2019-03-17T11:09:28.784Z,99432.45
2019-03-17T11:11:57.392Z,99417.78
2019-03-17T11:14:26.670Z,99438.14
2019-03-17T11:16:55.563Z,99442.01
2019-03-17T11:19:25.656Z,99443.84
2019-03-17T11:21:54.980Z,99430.76
2019-03-17T11:24:23.877Z,99430.33
2019-03-17T11:26:55.605Z,99443.76
2019-03-17T11:29:23.487Z,99445.44
2019-03-17T11:31:53.111Z,99465.27
2019-03-17T11:34:21.743Z,99469.61
2019-03-17T11:36:51.097Z,99460.86
2019-03-17T11:39:20.293Z,99459.98
2019-03-17T11:41:49.270Z,99466.00
2019-03-17T11:44:17.935Z,99465.48
2019-03-17T11:46:46.586Z,99460.75
2019-03-17T11:49:15.781Z,99471.96
2019-03-17T11:51:45.078Z,99469.81
2019-03-17T11:54:13.721Z,99472.48
2019-03-17T11:56:42.644Z,99484.47
2019-03-17T11:59:11.279Z,99490.06
2019-03-17T12:01:39.886Z,99483.20
2019-03-17T12:04:08.792Z,99474.59
2019-03-17T12:06:37.433Z,99486.66
2019-03-17T12:09:07.677Z,99500.06
2019-03-17T12:11:36.369Z,99502.14
2019-03-17T12:14:05.077Z,99501.62
2019-03-17T12:16:34.291Z,99508.84
2019-03-17T12:19:02.911Z,99481.63
2019-03-17T12:21:31.875Z,99497.81
2019-03-17T12:24:00.848Z,99496.50
2019-03-17T12:26:29.457Z,99504.95
2019-03-17T12:28:58.342Z,99498.55
2019-03-17T12:31:27.212Z,99498.20
2019-03-17T12:33:56.104Z,99498.20
2019-03-17T12:36:24.995Z,99489.17
2019-03-17T12:38:53.886Z,99482.58
2019-03-17T12:41:22.525Z,99496.05
2019-03-17T12:43:51.776Z,99524.51
2019-03-17T12:46:20.387Z,99534.53
2019-03-17T12:48:49.666Z,99533.61
2019-03-17T12:51:18.553Z,99521.41
2019-03-17T12:53:47.443Z,99514.33
2019-03-17T12:56:16.635Z,99528.45
2019-03-17T12:58:45.531Z,99535.52
2019-03-17T13:01:14.423Z,99536.56
2019-03-17T13:03:43.060Z,99550.47
2019-03-17T13:06:11.723Z,99547.91
2019-03-17T13:08:40.581Z,99533.44
2019-03-17T13:11:09.790Z,99528.03
2019-03-17T13:13:38.418Z,99525.81
2019-03-17T13:16:07.100Z,99515.53
2019-03-17T13:18:36.051Z,99513.09
2019-03-17T13:21:04.914Z,99516.91
2019-03-17T13:23:33.852Z,99508.50
2019-03-17T13:26:02.526Z,99514.89
2019-03-17T13:28:31.195Z,99523.80
2019-03-17T13:30:59.835Z,99520.66
2019-03-17T13:33:28.488Z,99545.31
2019-03-17T13:35:57.506Z,99547.92
2019-03-17T13:38:26.168Z,99548.55
2019-03-17T13:40:55.152Z,99552.17
2019-03-17T13:43:23.795Z,99554.70
2019-03-17T13:45:52.431Z,99556.55
2019-03-17T13:48:21.737Z,99552.01
2019-03-17T13:50:50.388Z,99552.00
2019-03-17T13:53:18.991Z,99562.30
2019-03-17T13:55:47.632Z,99582.78
2019-03-17T13:58:16.256Z,99576.70
2019-03-17T14:00:45.150Z,99555.27
2019-03-17T14:03:13.779Z,99573.05
2019-03-17T14:05:43.049Z,99587.17
2019-03-17T14:08:11.929Z,99580.00
2019-03-17T14:10:41.598Z,99596.01
2019-03-17T14:13:10.391Z,99587.30
2019-03-17T14:15:39.003Z,99586.27
2019-03-17T14:18:08.310Z,99600.44
2019-03-17T14:20:37.539Z,99588.32
2019-03-17T14:23:06.528Z,99588.00
2019-03-17T14:25:35.716Z,99590.98
2019-03-17T14:28:04.393Z,99599.39
2019-03-17T14:30:33.395Z,99591.87
2019-03-17T14:33:02.580Z,99601.55
2019-03-17T14:35:31.225Z,99596.08
2019-03-17T14:38:00.165Z,99605.27
2019-03-17T14:40:28.811Z,99636.69
2019-03-17T14:42:57.803Z,99636.69
2019-03-17T14:45:26.432Z,99603.03
2019-03-17T14:47:55.393Z,99645.96
2019-03-17T14:50:25.326Z,99610.34
2019-03-17T14:52:53.950Z,99605.52
2019-03-17T14:55:23.218Z,99605.52
2019-03-17T14:57:52.732Z,99639.32
2019-03-17T15:00:21.387Z,99625.73
2019-03-17T15:02:50.206Z,99647.15
2019-03-17T15:05:19.156Z,99660.36
2019-03-17T15:07:47.766Z,99626.92
2019-03-17T15:10:17.560Z,99648.98
2019-03-17T15:12:46.595Z,99648.18
2019-03-17T15:15:16.360Z,99648.18
2019-03-17T15:17:45.413Z,99662.64
2019-03-17T15:20:15.900Z,99662.64
2019-03-17T15:22:44.810Z,99666.78
2019-03-17T15:25:13.602Z,99685.27
2019-03-17T15:27:42.476Z,99685.17
2019-03-17T15:30:16.605Z,99683.02
2019-03-17T15:32:45.598Z,99677.94
2019-03-17T15:35:14.593Z,99678.44
2019-03-17T15:37:43.314Z,99678.44
2019-03-17T15:40:12.950Z,99688.00
2019-03-17T15:42:42.033Z,99696.64
2019-03-17T15:45:12.919Z,99702.27
2019-03-17T15:47:41.545Z,99699.34
2019-03-17T15:50:11.482Z,99681.61
2019-03-17T15:52:40.091Z,99692.78
2019-03-17T15:55:09.868Z,99686.70
2019-03-17T15:57:38.911Z,99694.92
2019-03-17T16:00:23.751Z,99697.48
2019-03-17T16:02:41.164Z,99694.50
2019-03-17T16:05:09.903Z,99693.16
2019-03-17T16:07:42.454Z,99690.91
2019-03-17T16:10:10.198Z,99698.67
2019-03-17T16:12:38.898Z,99712.50
2019-03-17T16:15:08.504Z,99719.59
2019-03-17T16:17:37.419Z,99733.57
2019-03-17T16:20:06.716Z,99727.28
2019-03-17T16:22:35.716Z,99723.42
2019-03-17T16:25:04.775Z,99719.13
2019-03-17T16:27:33.700Z,99721.79
2019-03-17T16:30:02.570Z,99741.70
2019-03-17T16:32:31.495Z,99743.94
2019-03-17T16:35:00.447Z,99743.94
2019-03-17T16:37:29.134Z,99750.81
2019-03-17T16:39:58.092Z,99745.92
2019-03-17T16:42:26.723Z,99771.31
2019-03-17T16:44:55.937Z,99773.52
2019-03-17T16:47:24.846Z,99760.23
2019-03-17T16:49:54.028Z,99766.31
2019-03-17T16:52:22.680Z,99773.27
2019-03-17T16:54:51.583Z,99769.45
2019-03-17T16:57:20.476Z,99781.57
2019-03-17T16:59:49.491Z,99786.30
2019-03-17T17:02:18.707Z,99787.19
2019-03-17T17:04:47.814Z,99785.44
2019-03-17T17:07:17.434Z,99785.48
2019-03-17T17:09:46.601Z,99792.83
2019-03-17T17:12:15.772Z,99800.59
2019-03-17T17:14:44.691Z,99793.69
2019-03-17T17:17:13.571Z,99805.78
2019-03-17T17:19:42.882Z,99810.97
2019-03-17T17:22:11.527Z,99801.02
2019-03-17T17:24:40.437Z,99811.83
2019-03-17T17:27:09.052Z,99810.09
2019-03-17T17:29:37.939Z,99807.92
2019-03-17T17:32:06.603Z,99820.01
2019-03-17T17:34:35.239Z,99842.00
2019-03-17T17:37:03.941Z,99858.82
2019-03-17T17:39:32.575Z,99835.97
2019-03-17T17:42:09.037Z,99823.91
2019-03-17T17:44:31.597Z,99839.83
2019-03-17T17:47:00.203Z,99839.83
2019-03-17T17:49:30.286Z,99832.91
2019-03-17T17:51:59.283Z,99832.91
2019-03-17T17:54:27.966Z,99842.74
2019-03-17T17:56:56.960Z,99854.37
2019-03-17T17:59:25.594Z,99854.37
2019-03-17T18:01:54.275Z,99853.46
2019-03-17T18:04:22.938Z,99854.70
2019-03-17T18:06:51.912Z,99862.88
2019-03-17T18:09:21.115Z,99867.17
2019-03-17T18:11:49.758Z,99867.11
2019-03-17T18:14:19.098Z,99867.11
2019-03-17T18:16:47.989Z,99865.39
2019-03-17T18:19:17.006Z,99886.00
2019-03-17T18:21:45.977Z,99883.41
2019-03-17T18:24:14.590Z,99889.86
2019-03-17T18:26:43.560Z,99878.24
2019-03-17T18:29:12.581Z,99878.24
2019-03-17T18:31:41.547Z,99869.64
2019-03-17T18:34:10.526Z,99869.64
2019-03-17T18:36:39.210Z,99881.25
2019-03-17T18:39:08.234Z,99878.24
2019-03-17T18:41:36.853Z,99878.24
2019-03-17T18:44:06.031Z,99860.92
2019-03-17T18:46:38.030Z,99866.89
2019-03-17T18:49:07.077Z,99883.30
2019-03-17T18:51:35.726Z,99883.30
2019-03-17T18:54:05.615Z,99886.79
2019-03-17T18:56:34.767Z,99884.20
2019-03-17T18:59:03.435Z,99885.88
2019-03-17T19:01:32.355Z,99885.88
2019-03-17T19:04:01.329Z,99888.45
2019-03-17T19:06:30.257Z,99897.92
2019-03-17T19:08:58.881Z,99941.75
2019-03-17T19:11:27.550Z,99939.81
2019-03-17T19:13:56.791Z,99939.81
2019-03-17T19:16:25.408Z,99910.08
2019-03-17T19:18:54.373Z,99906.20
2019-03-17T19:21:23.037Z,99904.48
2019-03-17T19:23:51.945Z,99904.48
2019-03-17T19:26:20.574Z,99906.11
2019-03-17T19:28:49.517Z,99920.70
2019-03-17T19:31:19.851Z,99920.70
2019-03-17T19:33:48.502Z,99919.42
2019-03-17T19:36:17.438Z,99919.39
2019-03-17T19:38:46.335Z,99908.50
2019-03-17T19:41:14.956Z,99925.66
2019-03-17T19:43:43.618Z,99917.92
2019-03-17T19:46:12.595Z,99919.22
2019-03-17T19:48:41.241Z,99919.22
2019-03-17T19:51:10.690Z,99910.55
2019-03-17T19:53:39.669Z,99916.20
2019-03-17T19:56:08.608Z,99918.38
2019-03-17T19:58:37.202Z,99915.36
2019-03-17T20:01:06.186Z,99913.65
2019-03-17T20:03:35.129Z,99931.30
2019-03-17T20:06:04.113Z,99929.23
2019-03-17T20:08:33.146Z,99927.50
2019-03-17T20:11:02.019Z,99934.82
2019-03-17T20:13:30.658Z,99922.78
2019-03-17T20:15:59.609Z,99935.68
2019-03-17T20:18:28.586Z,99916.77
2019-03-17T20:20:57.555Z,99918.48
2019-03-17T20:23:26.962Z,99920.63
2019-03-17T20:25:56.007Z,99929.22
2019-03-17T20:28:24.968Z,99939.08
2019-03-17T20:30:53.574Z,99939.08
2019-03-17T20:33:22.296Z,99937.80
2019-03-17T20:35:51.208Z,99951.89
2019-03-17T20:38:20.124Z,99947.93
2019-03-17T20:40:48.971Z,99947.93
2019-03-17T20:43:29.042Z,99951.72
2019-03-17T20:45:48.594Z,99951.72
2019-03-17T20:48:17.772Z,99951.69
2019-03-17T20:50:46.394Z,99940.09
2019-03-17T20:53:15.119Z,99940.09
2019-03-17T20:55:43.997Z,99953.06
2019-03-17T20:58:13.190Z,99947.47
2019-03-17T21:00:41.893Z,99946.95
2019-03-17T21:03:10.876Z,99951.69
2019-03-17T21:05:39.871Z,99953.80
2019-03-17T21:08:08.788Z,99955.95
2019-03-17T21:10:37.468Z,99961.03
2019-03-17T21:13:06.325Z,99966.20
2019-03-17T21:15:35.334Z,99967.55
2019-03-17T21:18:04.318Z,99973.55
2019-03-17T21:20:33.634Z,99967.56
2019-03-17T21:23:02.932Z,99959.40
2019-03-17T21:25:31.819Z,99973.17
2019-03-17T21:28:01.291Z,99972.62
2019-03-17T21:30:30.235Z,99962.28
2019-03-17T21:32:58.924Z,99970.06
2019-03-17T21:35:28.500Z,99961.03
2019-03-17T21:37:57.517Z,99959.80
2019-03-17T21:40:26.174Z,99961.09
2019-03-17T21:42:56.034Z,99963.23
2019-03-17T21:45:27.269Z,99950.66
2019-03-17T21:47:55.273Z,99955.71
2019-03-17T21:50:23.916Z,99951.89
2019-03-17T21:52:52.606Z,99942.01
2019-03-17T21:55:21.793Z,99953.59
2019-03-17T21:57:50.732Z,99983.30
2019-03-17T22:00:20.087Z,99967.02
2019-03-17T22:02:48.829Z,99960.06
2019-03-17T22:05:17.739Z,99971.78
2019-03-17T22:07:51.126Z,99961.87
2019-03-17T22:10:16.898Z,99979.03
2019-03-17T22:12:45.756Z,99990.20
2019-03-17T22:15:14.486Z,99966.88
2019-03-17T22:17:43.380Z,99971.17
2019-03-17T22:20:12.098Z,99984.89
2019-03-17T22:22:40.726Z,99984.89
2019-03-17T22:25:09.521Z,99985.66
2019-03-17T22:27:38.183Z,99979.26
2019-03-17T22:30:08.184Z,99984.38
2019-03-17T22:32:36.825Z,99975.34
2019-03-17T22:35:06.216Z,99975.80
2019-03-17T22:37:35.218Z,99976.62
2019-03-17T22:40:04.502Z,99962.47
2019-03-17T22:42:33.802Z,100011.03
2019-03-17T22:45:02.999Z,99973.28
2019-03-17T22:47:31.598Z,99969.75
2019-03-17T22:50:00.364Z,99980.88
2019-03-17T22:52:29.572Z,99983.92
2019-03-17T22:54:58.887Z,99989.06
2019-03-17T22:57:28.490Z,99966.72
2019-03-17T22:59:57.677Z,99962.50
2019-03-17T23:02:26.383Z,99990.80
2019-03-17T23:04:55.045Z,100003.25
2019-03-17T23:07:23.693Z,99962.80
2019-03-17T23:09:52.637Z,99966.76
2019-03-17T23:12:21.359Z,99978.81
2019-03-17T23:14:50.315Z,99967.59
2019-03-17T23:17:18.935Z,99998.91
2019-03-17T23:19:47.597Z,99988.95
2019-03-17T23:22:16.216Z,99986.37
2019-03-17T23:24:44.874Z,99988.90
2019-03-17T23:27:13.606Z,100003.64
2019-03-17T23:29:42.282Z,99999.67
2019-03-17T23:32:11.219Z,99982.90
2019-03-17T23:34:40.731Z,99987.66
2019-03-17T23:37:09.736Z,99983.75
2019-03-17T23:39:38.454Z,99970.88
2019-03-17T23:42:07.400Z,99984.20
2019-03-17T23:44:48.290Z,99998.84
2019-03-17T23:47:07.061Z,99985.47
2019-03-17T23:49:36.019Z,99991.11
2019-03-17T23:52:04.724Z,100000.14
2019-03-17T23:54:35.947Z,99981.34
2019-03-17T23:57:04.650Z,99984.38
2019-03-17T23:59:34.244Z,100004.14
